| time (UTC) | temp C | wind direction | speed KPH | gust KPH | rain 1hr cm | rain 24hr cm | rain mn cm | humidity % | barometer mb |
| 20260510164619 | 28 | 10 | 3.2 | 12.9 | 0.00 | 0.00 | 0.00 | 37 | 1013.2 |
| 20260510163107 | 28 | 110 | 1.6 | 9.7 | 0.00 | 0.00 | 0.00 | 36 | 1013.4 |
| 20260510161610 | 27 | 176 | 0.0 | 11.3 | 0.00 | 0.00 | 0.00 | 44 | 1013.3 |
| 20260510160151 | 27 | 246 | 0.0 | 8.0 | 0.00 | 0.00 | 0.00 | 41 | 1013.5 |
| 20260510154606 | 27 | 15 | 0.0 | 4.8 | 0.00 | 0.00 | 0.00 | 49 | 1013.6 |
| 20260510153052 | 27 | 257 | 1.6 | 6.4 | 0.00 | 0.00 | 0.00 | 45 | 1013.7 |
| 20260510151525 | 27 | 258 | 0.0 | 4.8 | 0.00 | 0.00 | 0.00 | 46 | 1013.9 |
| 20260510150020 | 26 | 306 | 0.0 | 8.0 | 0.00 | 0.00 | 0.00 | 56 | 1013.8 |
| 20260510144523 | 25 | 310 | 1.6 | 9.7 | 0.00 | 0.00 | 0.00 | 48 | 1013.9 |
| 20260510143019 | 25 | 222 | 1.6 | 8.0 | 0.00 | 0.00 | 0.00 | 52 | 1013.8 |
| 20260510141509 | 24 | 330 | 1.6 | 6.4 | 0.00 | 0.00 | 0.00 | 57 | 1013.8 |
| 20260510140005 | 22 | 276 | 0.0 | 4.8 | 0.00 | 0.00 | 0.00 | 59 | 1013.7 |
| 20260510134501 | 22 | 261 | 0.0 | 4.8 | 0.00 | 0.00 | 0.00 | 69 | 1013.6 |
| 20260509191700 | 23 | 306 | 1.6 | 9.7 | 0.00 | 0.00 | 0.00 | 55 | 1008.2 |
| 20260509190155 | 23 | 245 | 0.0 | 16.1 | 0.00 | 0.00 | 0.00 | 51 | 1008.5 |
| 20260509184653 | 24 | 219 | 3.2 | 11.3 | 0.00 | 0.00 | 0.00 | 54 | 1008.7 |
| 20260509183149 | 24 | 278 | 6.4 | 17.7 | 0.00 | 0.00 | 0.00 | 54 | 1008.8 |
| 20260509181644 | 24 | 325 | 4.8 | 22.5 | 0.00 | 0.00 | 0.00 | 52 | 1009.0 |
| 20260509180138 | 24 | 343 | 3.2 | 9.7 | 0.00 | 0.00 | 0.00 | 53 | 1009.3 |
| 20260509174635 | 22 | 276 | 8.0 | 12.9 | 0.00 | 0.00 | 0.00 | 56 | 1009.2 |
| 20260509173128 | 22 | 293 | 3.2 | 20.9 | 0.00 | 0.00 | 0.00 | 57 | 1009.6 |
| 20260509171624 | 22 | 252 | 3.2 | 17.7 | 0.00 | 0.00 | 0.00 | 58 | 1009.8 |
| 20260509170124 | 22 | 269 | 4.8 | 20.9 | 0.00 | 0.00 | 0.00 | 60 | 1010.0 |